createdAt,value
2017-09-27T00:01:26.306Z,13.67
2017-09-27T00:03:53.879Z,13.40
2017-09-27T00:06:21.487Z,14.17
2017-09-27T00:08:49.654Z,14.17
2017-09-27T00:11:17.629Z,13.37
2017-09-27T00:13:47.072Z,14.30
2017-09-27T00:16:15.429Z,13.30
2017-09-27T00:18:43.314Z,14.53
2017-09-27T00:21:10.933Z,13.40
2017-09-27T00:23:38.872Z,17.70
2017-09-27T00:26:06.436Z,16.00
2017-09-27T00:28:34.023Z,16.30
2017-09-27T00:31:02.268Z,16.40
2017-09-27T00:33:29.865Z,14.43
2017-09-27T00:35:57.439Z,14.70
2017-09-27T00:38:25.016Z,16.77
2017-09-27T00:40:52.740Z,16.60
2017-09-27T00:43:20.714Z,13.57
2017-09-27T00:45:48.660Z,14.47
2017-09-27T00:48:16.960Z,12.77
2017-09-27T00:50:44.545Z,13.43
2017-09-27T00:53:13.363Z,14.13
2017-09-27T00:55:40.983Z,17.40
2017-09-27T00:58:08.549Z,14.33
2017-09-27T01:00:36.143Z,12.87
2017-09-27T01:03:03.723Z,13.70
2017-09-27T01:05:32.755Z,14.37
2017-09-27T01:08:00.799Z,13.17
2017-09-27T01:10:29.679Z,16.20
2017-09-27T01:12:59.948Z,15.07
2017-09-27T01:15:28.314Z,17.97
2017-09-27T01:17:56.293Z,12.63
2017-09-27T01:20:25.206Z,17.07
2017-09-27T01:22:53.221Z,17.40
2017-09-27T01:25:20.789Z,17.33
2017-09-27T01:27:50.196Z,15.03
2017-09-27T01:30:17.762Z,12.70
2017-09-27T01:32:45.355Z,16.40
2017-09-27T01:35:14.386Z,13.43
2017-09-27T01:37:44.546Z,12.80
2017-09-27T01:40:12.479Z,14.00
2017-09-27T01:42:42.257Z,20.97
2017-09-27T01:45:10.305Z,17.20
2017-09-27T01:47:38.358Z,17.83
2017-09-27T01:50:06.970Z,18.37
2017-09-27T01:52:35.766Z,18.80
2017-09-27T01:55:04.669Z,22.83
2017-09-27T01:57:33.561Z,19.23
2017-09-27T02:00:01.153Z,16.90
2017-09-27T02:02:29.688Z,19.30
2017-09-27T02:04:57.629Z,20.37
2017-09-27T02:07:25.597Z,13.10
2017-09-27T02:09:54.741Z,13.40
2017-09-27T02:12:22.344Z,14.53
2017-09-27T02:14:49.934Z,13.60
2017-09-27T02:17:18.303Z,15.73
2017-09-27T02:19:46.321Z,15.37
2017-09-27T02:22:14.552Z,13.90
2017-09-27T02:24:43.581Z,12.10
2017-09-27T02:27:11.927Z,13.83
2017-09-27T02:29:39.562Z,13.17
2017-09-27T02:32:09.246Z,13.10
2017-09-27T02:34:37.290Z,12.80
2017-09-27T02:37:05.210Z,14.63
2017-09-27T02:39:33.197Z,14.33
2017-09-27T02:42:03.239Z,14.30
2017-09-27T02:44:30.832Z,14.60
2017-09-27T02:46:58.857Z,17.00
2017-09-27T02:49:26.711Z,17.97
2017-09-27T02:51:54.764Z,21.77
2017-09-27T02:54:23.379Z,20.70
2017-09-27T02:56:52.411Z,17.97
2017-09-27T02:59:21.401Z,18.13
2017-09-27T03:01:48.990Z,21.33
2017-09-27T03:04:16.969Z,19.30
2017-09-27T03:06:47.189Z,19.73
2017-09-27T03:09:14.785Z,20.60
2017-09-27T03:11:44.128Z,19.23
2017-09-27T03:14:13.163Z,18.77
2017-09-27T03:16:40.733Z,22.10
2017-09-27T03:19:08.356Z,21.53
2017-09-27T03:21:35.985Z,20.67
2017-09-27T03:24:04.060Z,19.07
2017-09-27T03:26:32.819Z,20.10
2017-09-27T03:29:00.398Z,21.53
2017-09-27T03:31:27.964Z,19.73
2017-09-27T03:33:56.864Z,18.17
2017-09-27T03:36:24.439Z,21.83
2017-09-27T03:38:54.094Z,21.10
2017-09-27T03:41:21.670Z,18.30
2017-09-27T03:43:49.281Z,21.70
2017-09-27T03:46:16.870Z,21.60
2017-09-27T03:48:44.553Z,20.27
2017-09-27T03:51:12.768Z,23.60
2017-09-27T03:53:40.357Z,25.53
2017-09-27T03:56:10.634Z,20.77
2017-09-27T03:58:38.237Z,19.77
2017-09-27T04:01:07.296Z,19.60
2017-09-27T04:03:34.865Z,24.60
2017-09-27T04:06:02.453Z,25.43
2017-09-27T04:08:31.803Z,24.10
2017-09-27T04:10:59.430Z,38.77
2017-09-27T04:13:28.468Z,37.30
2017-09-27T04:15:56.037Z,37.93
2017-09-27T04:18:23.656Z,36.10
2017-09-27T04:20:52.003Z,43.77
2017-09-27T04:23:19.879Z,30.67
2017-09-27T04:25:47.466Z,33.90
2017-09-27T04:28:15.061Z,25.67
2017-09-27T04:30:42.673Z,24.20
2017-09-27T04:33:10.262Z,28.77
2017-09-27T04:35:39.389Z,35.70
2017-09-27T04:38:06.976Z,46.33
2017-09-27T04:40:36.428Z,59.40
2017-09-27T04:43:04.062Z,39.37
2017-09-27T04:45:31.632Z,41.57
2017-09-27T04:47:59.230Z,44.57
2017-09-27T04:50:28.257Z,50.77
2017-09-27T04:52:56.251Z,45.53
2017-09-27T04:55:24.255Z,50.00
2017-09-27T04:57:53.830Z,52.67
2017-09-27T05:00:22.023Z,47.27
2017-09-27T05:02:49.948Z,49.10
2017-09-27T05:05:17.954Z,48.03
2017-09-27T05:07:46.874Z,42.63
2017-09-27T05:10:16.797Z,52.17
2017-09-27T05:12:44.370Z,48.30
2017-09-27T05:15:11.953Z,43.17
2017-09-27T05:17:40.263Z,45.70
2017-09-27T05:20:08.179Z,41.60
2017-09-27T05:22:35.766Z,44.57
2017-09-27T05:25:03.722Z,61.53
2017-09-27T05:27:31.295Z,49.27
2017-09-27T05:30:01.403Z,52.07
2017-09-27T05:32:29.005Z,52.50
2017-09-27T05:34:56.584Z,38.70
2017-09-27T05:37:24.154Z,43.97
2017-09-27T05:39:51.724Z,37.17
2017-09-27T05:42:19.751Z,33.93
2017-09-27T05:44:47.689Z,82.53
2017-09-27T05:47:15.306Z,49.00
2017-09-27T05:49:44.728Z,44.00
2017-09-27T05:52:15.714Z,50.80
2017-09-27T05:54:43.318Z,43.67
2017-09-27T05:57:10.934Z,40.23
2017-09-27T05:59:38.878Z,44.57
2017-09-27T06:02:06.506Z,43.80
2017-09-27T06:04:35.502Z,51.03
2017-09-27T06:07:03.123Z,47.57
2017-09-27T06:09:31.504Z,62.87
2017-09-27T06:11:59.158Z,48.27
2017-09-27T06:14:28.054Z,47.53
2017-09-27T06:16:55.845Z,43.23
2017-09-27T06:19:23.445Z,57.73
2017-09-27T06:21:52.499Z,49.20
2017-09-27T06:24:21.508Z,40.20
2017-09-27T06:26:49.226Z,42.93
2017-09-27T06:29:17.810Z,48.03
2017-09-27T06:31:47.057Z,44.10
2017-09-27T06:34:14.639Z,39.70
2017-09-27T06:36:43.533Z,47.80
2017-09-27T06:39:11.105Z,49.87
2017-09-27T06:41:38.784Z,40.57
2017-09-27T06:44:06.382Z,38.70
2017-09-27T06:46:33.997Z,39.87
2017-09-27T06:49:01.599Z,36.40
2017-09-27T06:51:32.065Z,42.73
2017-09-27T06:53:59.668Z,38.20
2017-09-27T06:56:27.728Z,43.87
2017-09-27T06:58:55.308Z,42.70
2017-09-27T07:01:22.919Z,49.70
2017-09-27T07:03:50.928Z,46.53
2017-09-27T07:06:18.724Z,46.80
2017-09-27T07:08:48.956Z,53.53
2017-09-27T07:11:20.294Z,54.37
2017-09-27T07:13:48.021Z,58.17
2017-09-27T07:16:15.927Z,61.90
2017-09-27T07:18:43.510Z,58.00
2017-09-27T07:21:11.986Z,61.67
2017-09-27T07:23:39.577Z,58.97
2017-09-27T07:26:07.176Z,48.40
2017-09-27T07:28:35.683Z,48.40
2017-09-27T07:31:04.838Z,46.67
2017-09-27T07:33:32.477Z,46.23
2017-09-27T07:36:00.821Z,53.00
2017-09-27T07:38:28.409Z,49.53
2017-09-27T07:40:56.017Z,47.00
2017-09-27T07:43:23.631Z,39.77
2017-09-27T07:45:51.233Z,45.33
2017-09-27T07:48:18.813Z,43.93
2017-09-27T07:50:46.398Z,40.43
2017-09-27T07:53:16.627Z,42.03
2017-09-27T07:55:44.248Z,38.83
2017-09-27T07:58:15.225Z,52.40
2017-09-27T08:00:42.829Z,46.13
2017-09-27T08:03:10.427Z,43.07
2017-09-27T08:05:38.028Z,49.17
2017-09-27T08:08:07.900Z,45.10
2017-09-27T08:10:36.127Z,47.20
2017-09-27T08:13:03.728Z,48.13
2017-09-27T08:15:32.750Z,48.20
2017-09-27T08:18:00.888Z,50.00
2017-09-27T08:20:34.134Z,43.50
2017-09-27T08:23:02.131Z,48.93
2017-09-27T08:25:29.722Z,49.20
2017-09-27T08:27:57.322Z,49.07
2017-09-27T08:30:26.202Z,44.37
2017-09-27T08:32:53.779Z,48.60
2017-09-27T08:35:24.392Z,44.60
2017-09-27T08:37:53.683Z,46.80
2017-09-27T08:40:21.256Z,56.30
2017-09-27T08:42:49.241Z,57.90
2017-09-27T08:45:18.199Z,58.27
2017-09-27T08:47:47.907Z,58.50
2017-09-27T08:50:15.499Z,58.93
2017-09-27T08:52:43.091Z,52.77
2017-09-27T08:55:12.146Z,64.77
2017-09-27T08:57:41.525Z,59.13
2017-09-27T09:00:10.515Z,63.27
2017-09-27T09:02:39.428Z,58.13
2017-09-27T09:05:07.112Z,61.40
2017-09-27T09:07:36.681Z,55.93
2017-09-27T09:10:04.736Z,72.87
2017-09-27T09:12:32.315Z,70.33
2017-09-27T09:14:59.931Z,66.13
2017-09-27T09:17:27.518Z,62.10
2017-09-27T09:19:55.450Z,59.03
2017-09-27T09:22:23.526Z,57.67
2017-09-27T09:24:54.042Z,65.43
2017-09-27T09:27:22.374Z,60.23
2017-09-27T09:29:51.377Z,53.30
2017-09-27T09:32:18.965Z,57.10
2017-09-27T09:34:46.548Z,52.07
2017-09-27T09:37:14.181Z,51.37
2017-09-27T09:39:42.190Z,54.17
2017-09-27T09:42:10.186Z,53.17
2017-09-27T09:44:37.766Z,59.13
2017-09-27T09:47:05.394Z,50.43
2017-09-27T09:49:32.998Z,48.83
2017-09-27T09:52:00.605Z,50.90
2017-09-27T09:54:28.206Z,47.93
2017-09-27T09:56:56.218Z,52.00
2017-09-27T09:59:24.566Z,49.03
2017-09-27T10:01:52.504Z,50.43
2017-09-27T10:04:20.091Z,50.10
2017-09-27T10:06:48.013Z,52.10
2017-09-27T10:09:15.611Z,49.43
2017-09-27T10:11:44.510Z,53.47
2017-09-27T10:14:12.525Z,56.00
2017-09-27T10:16:40.455Z,54.10
2017-09-27T10:19:08.169Z,51.33
2017-09-27T10:21:36.192Z,56.67
2017-09-27T10:24:04.429Z,50.47
2017-09-27T10:26:33.816Z,51.07
2017-09-27T10:29:01.794Z,51.40
2017-09-27T10:31:30.891Z,56.03
2017-09-27T10:33:58.501Z,53.13
2017-09-27T10:36:26.530Z,50.30
2017-09-27T10:38:54.123Z,51.77
2017-09-27T10:41:21.738Z,59.87
2017-09-27T10:43:49.330Z,63.03
2017-09-27T10:46:16.964Z,53.30
2017-09-27T10:48:45.793Z,54.87
2017-09-27T10:51:14.783Z,56.47
2017-09-27T10:53:43.695Z,57.07
2017-09-27T10:56:11.310Z,55.07
2017-09-27T10:58:39.772Z,62.67
2017-09-27T11:01:08.886Z,58.93
2017-09-27T11:03:36.968Z,54.87
2017-09-27T11:06:05.982Z,56.10
2017-09-27T11:08:35.185Z,59.00
2017-09-27T11:11:02.779Z,53.37
2017-09-27T11:13:30.869Z,56.27
2017-09-27T11:15:59.154Z,52.20
2017-09-27T11:18:26.773Z,57.33
2017-09-27T11:20:54.350Z,58.80
2017-09-27T11:23:22.009Z,49.90
2017-09-27T11:25:49.587Z,54.80
2017-09-27T11:28:17.189Z,47.80
2017-09-27T11:30:45.295Z,47.30
2017-09-27T11:33:12.866Z,49.57
2017-09-27T11:35:40.869Z,46.43
2017-09-27T11:38:09.078Z,45.87
2017-09-27T11:40:38.036Z,51.40
2017-09-27T11:43:06.610Z,50.47
2017-09-27T11:45:36.058Z,49.03
2017-09-27T11:48:03.635Z,48.43
2017-09-27T11:50:31.225Z,46.10
2017-09-27T11:52:59.175Z,36.70
2017-09-27T11:55:27.139Z,39.13
2017-09-27T11:57:55.134Z,42.97
2017-09-27T12:00:22.684Z,41.33
2017-09-27T12:02:51.851Z,37.77
2017-09-27T12:05:19.455Z,37.43
2017-09-27T12:07:47.048Z,36.00
2017-09-27T12:10:14.621Z,31.00
2017-09-27T12:12:42.231Z,36.30
2017-09-27T12:15:09.790Z,37.73
2017-09-27T12:17:38.638Z,35.87
2017-09-27T12:20:07.530Z,32.87
2017-09-27T12:22:35.380Z,34.60
2017-09-27T12:25:02.937Z,34.63
2017-09-27T12:27:31.048Z,32.03
2017-09-27T12:29:58.733Z,32.67
2017-09-27T12:32:26.295Z,28.77
2017-09-27T12:34:54.586Z,20.50
2017-09-27T12:37:22.535Z,20.73
2017-09-27T12:39:50.116Z,18.50
2017-09-27T12:42:19.363Z,17.10
2017-09-27T12:44:46.948Z,17.13
2017-09-27T12:47:14.517Z,17.90
2017-09-27T12:49:42.097Z,16.57
2017-09-27T12:52:10.044Z,24.07
2017-09-27T12:54:38.239Z,19.03
2017-09-27T12:57:05.816Z,18.43
2017-09-27T12:59:33.752Z,14.20
2017-09-27T13:02:01.334Z,13.87
2017-09-27T13:04:28.916Z,12.70
2017-09-27T13:06:56.514Z,18.17
2017-09-27T13:09:24.809Z,20.67
2017-09-27T13:11:52.417Z,18.83
2017-09-27T13:14:19.992Z,15.23
2017-09-27T13:16:47.925Z,18.60
2017-09-27T13:19:15.523Z,17.60
2017-09-27T13:21:43.119Z,22.80
2017-09-27T13:24:12.079Z,19.70
2017-09-27T13:26:40.296Z,21.50
2017-09-27T13:29:08.808Z,28.20
2017-09-27T13:31:37.415Z,25.47
2017-09-27T13:34:04.961Z,27.73
2017-09-27T13:36:32.653Z,29.40
2017-09-27T13:39:00.245Z,33.87
2017-09-27T13:41:27.812Z,33.70
2017-09-27T13:43:55.409Z,31.23
2017-09-27T13:46:22.963Z,29.60
2017-09-27T13:48:50.536Z,35.60
2017-09-27T13:51:18.107Z,31.77
2017-09-27T13:53:45.653Z,32.53
2017-09-27T13:56:13.221Z,31.27
2017-09-27T13:58:41.614Z,34.17
2017-09-27T14:01:09.172Z,36.03
2017-09-27T14:03:37.151Z,37.23
2017-09-27T14:06:04.901Z,34.03
2017-09-27T14:08:32.455Z,33.27
2017-09-27T14:11:00.030Z,30.50
2017-09-27T14:13:27.600Z,34.53
2017-09-27T14:15:55.584Z,33.63
2017-09-27T14:18:23.161Z,30.50
2017-09-27T14:20:50.855Z,30.40
2017-09-27T14:23:18.429Z,30.60
2017-09-27T14:25:46.705Z,35.00
2017-09-27T14:28:14.275Z,35.53
2017-09-27T14:30:41.875Z,33.33
2017-09-27T14:33:09.454Z,31.13
2017-09-27T14:35:37.036Z,33.90
2017-09-27T14:38:04.626Z,33.50
2017-09-27T14:40:32.197Z,33.40
2017-09-27T14:42:59.830Z,32.30
2017-09-27T14:45:27.385Z,30.80
2017-09-27T14:47:55.310Z,32.60
2017-09-27T14:50:22.890Z,33.23
2017-09-27T14:52:50.463Z,30.60
2017-09-27T14:55:18.077Z,33.70
2017-09-27T14:57:45.671Z,33.43
2017-09-27T15:00:13.268Z,30.90
2017-09-27T15:02:41.291Z,29.43
2017-09-27T15:05:08.894Z,29.30
2017-09-27T15:07:36.483Z,27.43
2017-09-27T15:10:04.059Z,28.23
2017-09-27T15:12:31.624Z,28.27
2017-09-27T15:14:59.236Z,28.47
2017-09-27T15:17:26.817Z,32.37
2017-09-27T15:19:54.433Z,30.67
2017-09-27T15:22:22.022Z,29.33
2017-09-27T15:24:49.569Z,27.07
2017-09-27T15:27:17.201Z,27.30
2017-09-27T15:29:44.775Z,32.00
2017-09-27T15:32:12.357Z,28.10
2017-09-27T15:34:39.944Z,27.43
2017-09-27T15:37:07.548Z,28.30
2017-09-27T15:39:35.496Z,26.20
2017-09-27T15:42:03.811Z,30.23
2017-09-27T15:44:31.490Z,30.03
2017-09-27T15:46:59.061Z,26.63
2017-09-27T15:49:26.632Z,31.53
2017-09-27T15:51:54.220Z,32.07
2017-09-27T15:54:21.771Z,30.93
2017-09-27T15:56:49.492Z,27.53
2017-09-27T15:59:17.132Z,32.20
2017-09-27T16:01:45.982Z,30.20
2017-09-27T16:04:13.574Z,27.07
2017-09-27T16:06:41.151Z,27.03
2017-09-27T16:09:09.185Z,25.27
2017-09-27T16:11:36.770Z,28.50
2017-09-27T16:14:04.338Z,23.37
2017-09-27T16:16:32.106Z,30.20
2017-09-27T16:18:59.666Z,25.37
2017-09-27T16:21:27.274Z,29.50
2017-09-27T16:23:54.839Z,37.27
2017-09-27T16:26:22.432Z,26.87
2017-09-27T16:28:50.386Z,23.80
2017-09-27T16:31:17.991Z,28.93
2017-09-27T16:33:45.571Z,30.13
2017-09-27T16:36:13.175Z,27.90
2017-09-27T16:38:40.733Z,27.87
2017-09-27T16:41:08.333Z,27.67
2017-09-27T16:43:35.959Z,29.70
2017-09-27T16:46:03.542Z,31.07
2017-09-27T16:48:31.124Z,30.10
2017-09-27T16:50:59.052Z,30.47
2017-09-27T16:53:26.646Z,28.93
2017-09-27T16:55:54.197Z,30.83
2017-09-27T16:58:23.237Z,31.93
2017-09-27T17:00:51.280Z,29.77
2017-09-27T17:03:18.922Z,34.00
2017-09-27T17:05:46.497Z,39.20
2017-09-27T17:08:16.500Z,32.67
2017-09-27T17:10:45.088Z,34.83
2017-09-27T17:13:12.682Z,32.50
2017-09-27T17:15:40.274Z,32.53
2017-09-27T17:18:08.564Z,25.57
2017-09-27T17:20:36.153Z,30.17
2017-09-27T17:23:04.039Z,32.23
2017-09-27T17:25:31.672Z,30.60
2017-09-27T17:27:59.281Z,28.07
2017-09-27T17:30:27.451Z,33.47
2017-09-27T17:32:55.069Z,29.90
2017-09-27T17:35:22.690Z,29.67
2017-09-27T17:37:50.280Z,27.50
2017-09-27T17:40:18.539Z,29.60
2017-09-27T17:42:46.888Z,30.33
2017-09-27T17:45:14.459Z,29.30
2017-09-27T17:47:42.060Z,31.63
2017-09-27T17:50:11.017Z,33.97
2017-09-27T17:52:38.646Z,34.43
2017-09-27T17:55:06.577Z,42.10
2017-09-27T17:57:34.203Z,35.10
2017-09-27T18:00:02.233Z,37.40
2017-09-27T18:02:30.209Z,37.03
2017-09-27T18:05:13.397Z,33.80
2017-09-27T18:07:48.495Z,34.20
2017-09-27T18:10:22.186Z,29.20
2017-09-27T18:13:00.848Z,36.53
2017-09-27T18:15:34.685Z,34.40
2017-09-27T18:21:08.878Z,32.17
2017-09-27T18:23:38.872Z,29.30
2017-09-27T18:26:06.481Z,28.50
2017-09-27T18:28:34.765Z,28.07
2017-09-27T18:31:03.048Z,27.90
2017-09-27T18:33:30.625Z,35.20
2017-09-27T18:35:59.880Z,30.40
2017-09-27T18:38:27.466Z,30.37
2017-09-27T18:40:57.836Z,29.47
2017-09-27T18:43:30.680Z,30.00
2017-09-27T18:45:58.770Z,28.77
2017-09-27T18:48:26.380Z,30.57
2017-09-27T18:50:55.921Z,25.90
2017-09-27T18:53:23.513Z,31.17
2017-09-27T18:55:53.119Z,27.70
2017-09-27T18:58:20.712Z,27.33
2017-09-27T19:00:48.750Z,24.50
2017-09-27T19:03:17.740Z,26.53
2017-09-27T19:05:46.127Z,29.20
2017-09-27T19:08:14.182Z,30.33
2017-09-27T19:10:43.981Z,28.00
2017-09-27T19:13:11.677Z,28.77
2017-09-27T19:15:39.270Z,28.67
2017-09-27T19:18:08.242Z,27.27
2017-09-27T19:20:36.642Z,31.50
2017-09-27T19:23:04.720Z,28.50
2017-09-27T19:25:32.339Z,26.90
2017-09-27T19:28:00.289Z,34.90
2017-09-27T19:30:28.314Z,26.13
2017-09-27T19:32:56.373Z,33.80
2017-09-27T19:35:25.321Z,33.63
2017-09-27T19:37:56.042Z,33.17
2017-09-27T19:40:24.449Z,30.07
2017-09-27T19:42:52.051Z,32.10
2017-09-27T19:45:20.095Z,35.23
2017-09-27T19:47:47.641Z,33.73
2017-09-27T19:50:15.303Z,34.00
2017-09-27T19:52:42.928Z,33.63
2017-09-27T19:55:10.562Z,28.23
2017-09-27T19:57:38.163Z,29.70
2017-09-27T20:00:08.013Z,30.43
2017-09-27T20:02:38.470Z,28.53
2017-09-27T20:05:06.083Z,28.77
2017-09-27T20:07:34.059Z,31.50
2017-09-27T20:10:01.963Z,33.23
2017-09-27T20:12:30.190Z,28.97
2017-09-27T20:14:58.092Z,30.63
2017-09-27T20:17:25.818Z,29.20
2017-09-27T20:19:53.764Z,29.87
2017-09-27T20:22:21.749Z,32.10
2017-09-27T20:24:50.583Z,25.23
2017-09-27T20:27:18.200Z,28.93
2017-09-27T20:29:46.585Z,22.20
2017-09-27T20:32:14.655Z,22.67
2017-09-27T20:34:42.248Z,24.87
2017-09-27T20:37:10.659Z,29.00
2017-09-27T20:39:38.279Z,25.73
2017-09-27T20:42:07.119Z,26.33
2017-09-27T20:44:34.767Z,24.50
2017-09-27T20:47:02.350Z,28.00
2017-09-27T20:49:31.485Z,24.73
2017-09-27T20:51:59.451Z,30.27
2017-09-27T20:54:27.406Z,29.43
2017-09-27T20:56:54.995Z,30.33
2017-09-27T20:59:24.183Z,29.63
2017-09-27T21:01:51.753Z,32.97
2017-09-27T21:04:20.509Z,28.10
2017-09-27T21:06:48.507Z,28.90
2017-09-27T21:09:16.198Z,34.80
2017-09-27T21:11:43.796Z,27.33
2017-09-27T21:14:11.378Z,28.70
2017-09-27T21:16:39.121Z,27.37
2017-09-27T21:19:07.962Z,23.40
2017-09-27T21:21:36.852Z,23.40
2017-09-27T21:24:04.420Z,26.43
2017-09-27T21:26:32.025Z,24.70
2017-09-27T21:28:59.608Z,26.40
2017-09-27T21:31:27.231Z,27.10
2017-09-27T21:33:55.185Z,28.67
2017-09-27T21:36:22.863Z,27.90
2017-09-27T21:38:50.909Z,23.97
2017-09-27T21:41:19.877Z,22.70
2017-09-27T21:43:47.587Z,23.73
2017-09-27T21:46:15.574Z,21.77
2017-09-27T21:48:44.515Z,22.57
2017-09-27T21:51:12.102Z,22.00
2017-09-27T21:53:39.711Z,26.67
2017-09-27T21:56:07.312Z,25.37
2017-09-27T21:58:36.996Z,25.47
2017-09-27T22:01:04.564Z,23.80
2017-09-27T22:03:32.440Z,23.20
2017-09-27T22:06:01.016Z,22.20
2017-09-27T22:08:28.612Z,22.80
2017-09-27T22:10:56.213Z,20.20
2017-09-27T22:13:25.233Z,19.80
2017-09-27T22:15:52.826Z,24.10
2017-09-27T22:18:20.412Z,21.57
2017-09-27T22:20:48.023Z,18.00
2017-09-27T22:23:15.629Z,25.03
2017-09-27T22:25:45.641Z,19.93
2017-09-27T22:28:13.220Z,22.47
2017-09-27T22:30:42.451Z,21.00
2017-09-27T22:33:10.091Z,25.30
2017-09-27T22:35:38.014Z,26.13
2017-09-27T22:38:05.623Z,24.23
2017-09-27T22:40:33.518Z,25.40
2017-09-27T22:43:01.118Z,27.20
2017-09-27T22:45:28.689Z,28.40
2017-09-27T22:47:57.915Z,26.53
2017-09-27T22:50:25.840Z,27.20
2017-09-27T22:52:55.109Z,24.17
2017-09-27T22:55:22.688Z,23.17
2017-09-27T22:57:50.318Z,24.27
2017-09-27T23:00:19.294Z,20.03
2017-09-27T23:02:46.901Z,23.27
2017-09-27T23:05:14.510Z,25.17
2017-09-27T23:07:44.556Z,28.47
2017-09-27T23:10:12.141Z,28.87
2017-09-27T23:12:39.940Z,22.70
2017-09-27T23:15:08.332Z,24.10
2017-09-27T23:17:36.008Z,29.23
2017-09-27T23:20:03.635Z,27.53
2017-09-27T23:22:36.490Z,25.73
2017-09-27T23:25:04.119Z,23.03
2017-09-27T23:27:31.717Z,23.00
2017-09-27T23:29:59.725Z,19.93
2017-09-27T23:32:27.358Z,16.03
2017-09-27T23:34:54.995Z,20.40
2017-09-27T23:37:23.012Z,14.97
2017-09-27T23:39:50.626Z,16.60
2017-09-27T23:42:19.644Z,15.00
2017-09-27T23:44:48.579Z,17.10
2017-09-27T23:47:16.177Z,17.90
2017-09-27T23:49:44.124Z,19.90
2017-09-27T23:52:12.224Z,21.43
2017-09-27T23:54:41.492Z,20.13
2017-09-27T23:57:11.841Z,23.00
2017-09-27T23:59:39.873Z,20.57
